Observation data for Andrews on 08/13/2019      Previous  Date  Next       Current Mesonet Observations  Soil Data  Daily Summary Page  Observations in Plain Language
KANS 130500Z 29003KT 29/10 A2994 RMK A01 T02860097  RH  031%=      5-min Rain = 0
KANS 130505Z 29002KT 29/10 A2994 RMK A01 T02860098  RH  031%=      5-min Rain = 0
KANS 130510Z 26002KT 29/10 A2994 RMK A01 T02850098  RH  032%=      5-min Rain = 0
KANS 130515Z 23002KT 28/10 A2994 RMK A01 T02840104  RH  033%=      5-min Rain = 0
KANS 130520Z 23002KT 28/11 A2994 RMK A01 T02830108  RH  034%=      5-min Rain = 0
KANS 130525Z 23002KT 29/11 A2993 RMK A01 T02850110  RH  034%=      5-min Rain = 0
KANS 130530Z 22003KT 29/11 A2993 RMK A01 T02860105  RH  033%=      5-min Rain = 0
KANS 130535Z 21005KT 29/11 A2993 RMK A01 T02850106  RH  033%=      5-min Rain = 0
KANS 130540Z 20005KT 28/11 A2993 RMK A01 T02780113  RH  037%=      5-min Rain = 0
KANS 130545Z 19004KT 27/10 A2993 RMK A01 T02740104  RH  035%=      5-min Rain = 0
KANS 130550Z 18006KT 27/10 A2994 RMK A01 T02730099  RH  034%=      5-min Rain = 0
KANS 130555Z 19006KT 28/09 A2994 RMK A01 T02780093  RH  032%=      5-min Rain = 0
KANS 130600Z 20008KT 29/10 A2994 RMK A01 T02920097  RH  030%=      5-min Rain = 0
KANS 130605Z 20008G13KT 31/10 A2995 RMK A01 T03060102  RH  029%=      5-min Rain = 0
KANS 130610Z 20008G15KT 31/11 A2995 RMK A01 T03120105  RH  028%=      5-min Rain = 0
KANS 130615Z 20010KT 32/11 A2995 RMK A01 T03160107  RH  028%=      5-min Rain = 0
KANS 130620Z 21009KT 32/11 A2995 RMK A01 T03160109  RH  028%=      5-min Rain = 0
KANS 130625Z 21008KT 31/11 A2995 RMK A01 T03140111  RH  029%=      5-min Rain = 0
KANS 130630Z 21005KT 31/11 A2995 RMK A01 T03110111  RH  030%=      5-min Rain = 0
KANS 130635Z 21007KT 31/11 A2995 RMK A01 T03090111  RH  030%=      5-min Rain = 0
KANS 130640Z 21008G14KT 31/11 A2995 RMK A01 T03060113  RH  031%=      5-min Rain = 0
KANS 130645Z 21009KT 31/12 A2995 RMK A01 T03070115  RH  031%=      5-min Rain = 0
KANS 130650Z 21008KT 31/12 A2995 RMK A01 T03080117  RH  032%=      5-min Rain = 0
KANS 130655Z 22006KT 31/12 A2995 RMK A01 T03060118  RH  032%=      5-min Rain = 0
KANS 130700Z 22006KT 30/12 A2995 RMK A01 T03040118  RH  032%=      5-min Rain = 0
KANS 130705Z 23005KT 30/12 A2995 RMK A01 T03010118  RH  033%=      5-min Rain = 0
KANS 130710Z 22007KT 30/12 A2995 RMK A01 T02990120  RH  034%=      5-min Rain = 0
KANS 130715Z 21007G12KT 30/12 A2996 RMK A01 T02990122  RH  034%=      5-min Rain = 0
KANS 130720Z 21004KT 30/12 A2996 RMK A01 T02990122  RH  034%=      5-min Rain = 0
KANS 130725Z 23004KT 30/12 A2996 RMK A01 T02960122  RH  035%=      5-min Rain = 0
KANS 130730Z 23005KT 29/12 A2996 RMK A01 T02930121  RH  035%=      5-min Rain = 0
KANS 130735Z 21005KT 29/12 A2996 RMK A01 T02910124  RH  036%=      5-min Rain = 0
KANS 130740Z 21005KT 29/13 A2996 RMK A01 T02880127  RH  038%=      5-min Rain = 0
KANS 130745Z 21006KT 29/13 A2996 RMK A01 T02860127  RH  038%=      5-min Rain = 0
KANS 130750Z 20006KT 29/13 A2995 RMK A01 T02870127  RH  038%=      5-min Rain = 0
KANS 130755Z 20006KT 29/13 A2995 RMK A01 T02870127  RH  038%=      5-min Rain = 0
KANS 130800Z 20005KT 29/13 A2995 RMK A01 T02870127  RH  038%=      5-min Rain = 0
KANS 130805Z 20005KT 29/13 A2995 RMK A01 T02870127  RH  038%=      5-min Rain = 0
KANS 130810Z 20005KT 29/13 A2995 RMK A01 T02860127  RH  038%=      5-min Rain = 0
KANS 130815Z 20005KT 28/13 A2995 RMK A01 T02840128  RH  039%=      5-min Rain = 0
KANS 130820Z 20006KT 28/13 A2995 RMK A01 T02830128  RH  039%=      5-min Rain = 0
KANS 130825Z 20007KT 29/13 A2995 RMK A01 T02850126  RH  038%=      5-min Rain = 0
KANS 130830Z 20007KT 29/12 A2995 RMK A01 T02870124  RH  037%=      5-min Rain = 0
KANS 130835Z 20007KT 29/12 A2995 RMK A01 T02880123  RH  037%=      5-min Rain = 0
KANS 130840Z 20006KT 29/12 A2995 RMK A01 T02890121  RH  036%=      5-min Rain = 0
KANS 130845Z 20006KT 29/12 A2996 RMK A01 T02880123  RH  037%=      5-min Rain = 0
KANS 130850Z 20006KT 29/12 A2996 RMK A01 T02860123  RH  037%=      5-min Rain = 0
KANS 130855Z 20006KT 29/12 A2996 RMK A01 T02850123  RH  037%=      5-min Rain = 0
KANS 130900Z 20005KT 29/12 A2996 RMK A01 T02850123  RH  037%=      5-min Rain = 0
KANS 130905Z 19004KT 28/12 A2996 RMK A01 T02840123  RH  038%=      5-min Rain = 0
KANS 130910Z 20005KT 28/12 A2996 RMK A01 T02810124  RH  038%=      5-min Rain = 0
KANS 130915Z 20006KT 28/12 A2995 RMK A01 T02800124  RH  039%=      5-min Rain = 0
KANS 130920Z 20006KT 28/12 A2995 RMK A01 T02810123  RH  038%=      5-min Rain = 0
KANS 130925Z 21004KT 28/12 A2995 RMK A01 T02790124  RH  039%=      5-min Rain = 0
KANS 130930Z 21003KT 28/13 A2995 RMK A01 T02760126  RH  040%=      5-min Rain = 0
KANS 130935Z 25002KT 27/13 A2996 RMK A01 T02740126  RH  041%=      5-min Rain = 0
KANS 130940Z 31002KT 27/13 A2996 RMK A01 T02710127  RH  042%=      5-min Rain = 0
KANS 130945Z 32003KT 27/13 A2996 RMK A01 T02680127  RH  043%=      5-min Rain = 0
KANS 130950Z 33004KT 26/13 A2996 RMK A01 T02640126  RH  043%=      5-min Rain = 0
KANS 130955Z 33003KT 26/13 A2996 RMK A01 T02600127  RH  044%=      5-min Rain = 0
KANS 131000Z 34003KT 26/13 A2996 RMK A01 T02620127  RH  044%=      5-min Rain = 0
KANS 131005Z 35004KT 27/13 A2997 RMK A01 T02660126  RH  042%=      5-min Rain = 0
KANS 131010Z 01005KT 27/13 A2997 RMK A01 T02650125  RH  043%=      5-min Rain = 0
KANS 131015Z 01004KT 26/13 A2997 RMK A01 T02630126  RH  043%=      5-min Rain = 0
KANS 131020Z 01006KT 26/13 A2997 RMK A01 T02600126  RH  044%=      5-min Rain = 0
KANS 131025Z 01002KT 26/13 A2997 RMK A01 T02560127  RH  045%=      5-min Rain = 0
KANS 131030Z 34002KT 26/13 A2997 RMK A01 T02550127  RH  046%=      5-min Rain = 0
KANS 131035Z 01002KT 26/13 A2997 RMK A01 T02580127  RH  045%=      5-min Rain = 0
KANS 131040Z 00003KT 26/13 A2997 RMK A01 T02560126  RH  045%=      5-min Rain = 0
KANS 131045Z 35001KT 26/13 A2998 RMK A01 T02570127  RH  045%=      5-min Rain = 0
KANS 131050Z 36001KT 26/13 A2998 RMK A01 T02580127  RH  045%=      5-min Rain = 0
KANS 131055Z 35001KT 26/13 A2998 RMK A01 T02550128  RH  046%=      5-min Rain = 0
KANS 131100Z 33002KT 25/13 A2998 RMK A01 T02510129  RH  047%=      5-min Rain = 0
KANS 131105Z 35002KT 25/13 A2998 RMK A01 T02530128  RH  047%=      5-min Rain = 0
KANS 131110Z 36002KT 26/13 A2998 RMK A01 T02550127  RH  046%=      5-min Rain = 0
KANS 131115Z 35002KT 25/13 A2998 RMK A01 T02520128  RH  047%=      5-min Rain = 0
KANS 131120Z 34003KT 25/13 A2998 RMK A01 T02470128  RH  048%=      5-min Rain = 0
KANS 131125Z 35003KT 25/13 A2998 RMK A01 T02460127  RH  049%=      5-min Rain = 0
KANS 131130Z 34004KT 24/13 A2999 RMK A01 T02430127  RH  049%=      5-min Rain = 0
KANS 131135Z 34004KT 24/13 A2999 RMK A01 T02420127  RH  050%=      5-min Rain = 0
KANS 131140Z 35005KT 24/13 A2999 RMK A01 T02400127  RH  050%=      5-min Rain = 0
KANS 131145Z 35005KT 24/13 A2999 RMK A01 T02380127  RH  051%=      5-min Rain = 0
KANS 131150Z 35004KT 24/13 A2999 RMK A01 T02380127  RH  051%=      5-min Rain = 0
KANS 131155Z 35005KT 24/13 A30 RMK A01 T02370130  RH  052%=      5-min Rain = 0
KANS 131200Z 35005KT 24/14 A30 RMK A01 T02350135  RH  054%=      5-min Rain = 0
KANS 131205Z 35005KT 23/14 A30 RMK A01 T02340137  RH  056%=      5-min Rain = 0
KANS 131210Z 34005KT 23/14 A30 RMK A01 T02320138  RH  057%=      5-min Rain = 0
KANS 131215Z 34005KT 23/14 A30 RMK A01 T02310139  RH  057%=      5-min Rain = 0
KANS 131220Z 34004KT 23/14 A30 RMK A01 T02290139  RH  058%=      5-min Rain = 0
KANS 131225Z 34005KT 23/14 A30 RMK A01 T02290140  RH  058%=      5-min Rain = 0
KANS 131230Z 34005KT 23/14 A30 RMK A01 T02280140  RH  059%=      5-min Rain = 0
KANS 131235Z 34005KT 23/14 A30 RMK A01 T02280141  RH  059%=      5-min Rain = 0
KANS 131240Z 35006KT 23/14 A30 RMK A01 T02290144  RH  060%=      5-min Rain = 0
KANS 131245Z 35006KT 23/15 A3001 RMK A01 T02310147  RH  060%=      5-min Rain = 0
KANS 131250Z 35006KT 23/15 A3001 RMK A01 T02330148  RH  060%=      5-min Rain = 0
KANS 131255Z 35007KT 23/15 A3001 RMK A01 T02340150  RH  061%=      5-min Rain = 0
KANS 131300Z 35007KT 24/15 A3001 RMK A01 T02360153  RH  061%=      5-min Rain = 0
KANS 131305Z 35007KT 24/15 A3001 RMK A01 T02380154  RH  061%=      5-min Rain = 0
KANS 131310Z 35007KT 24/16 A3001 RMK A01 T02400156  RH  060%=      5-min Rain = 0
KANS 131315Z 35008KT 24/16 A3002 RMK A01 T02430157  RH  060%=      5-min Rain = 0
KANS 131320Z 36007KT 24/16 A3002 RMK A01 T02440159  RH  060%=      5-min Rain = 0
KANS 131325Z 35006KT 25/16 A3002 RMK A01 T02490160  RH  059%=      5-min Rain = 0
KANS 131330Z 35008KT 25/16 A3002 RMK A01 T02510161  RH  059%=      5-min Rain = 0
KANS 131335Z 36008KT 25/16 A3002 RMK A01 T02520162  RH  059%=      5-min Rain = 0
KANS 131340Z 35009KT 25/16 A3002 RMK A01 T02530162  RH  058%=      5-min Rain = 0
KANS 131345Z 35008KT 26/16 A3002 RMK A01 T02560163  RH  057%=      5-min Rain = 0
KANS 131350Z 35009KT 26/16 A3002 RMK A01 T02580162  RH  057%=      5-min Rain = 0
KANS 131355Z 35008KT 26/16 A3002 RMK A01 T02600162  RH  056%=      5-min Rain = 0
KANS 131400Z 34009KT 26/16 A3002 RMK A01 T02610163  RH  056%=      5-min Rain = 0
KANS 131405Z 35008KT 26/16 A3002 RMK A01 T02610164  RH  056%=      5-min Rain = 0
KANS 131410Z 36009KT 26/16 A3002 RMK A01 T02630164  RH  056%=      5-min Rain = 0
KANS 131415Z 36009KT 26/17 A3002 RMK A01 T02640165  RH  056%=      5-min Rain = 0
KANS 131420Z 35009KT 27/17 A3002 RMK A01 T02670165  RH  055%=      5-min Rain = 0
KANS 131425Z 00009KT 27/17 A3003 RMK A01 T02680165  RH  054%=      5-min Rain = 0
KANS 131430Z 35010KT 27/17 A3003 RMK A01 T02680165  RH  054%=      5-min Rain = 0
KANS 131435Z 35010KT 27/17 A3003 RMK A01 T02710165  RH  053%=      5-min Rain = 0
KANS 131440Z 36008KT 27/17 A3003 RMK A01 T02710166  RH  054%=      5-min Rain = 0
KANS 131445Z 35008G13KT 27/17 A3003 RMK A01 T02690165  RH  054%=      5-min Rain = 0
KANS 131450Z 36007KT 27/17 A3003 RMK A01 T02710166  RH  054%=      5-min Rain = 0
KANS 131455Z 36009KT 28/17 A3003 RMK A01 T02750166  RH  053%=      5-min Rain = 0
KANS 131500Z 00008KT 28/17 A3003 RMK A01 T02760166  RH  052%=      5-min Rain = 0
KANS 131505Z 36009KT 28/17 A3003 RMK A01 T02760166  RH  052%=      5-min Rain = 0
KANS 131510Z 35009KT 28/17 A3004 RMK A01 T02760166  RH  052%=      5-min Rain = 0
KANS 131515Z 00009KT 28/17 A3004 RMK A01 T02770166  RH  052%=      5-min Rain = 0
KANS 131520Z 01008KT 28/17 A3004 RMK A01 T02790168  RH  052%=      5-min Rain = 0
KANS 131525Z 01009KT 28/17 A3004 RMK A01 T02800167  RH  051%=      5-min Rain = 0
KANS 131530Z 00009KT 28/17 A3004 RMK A01 T02810167  RH  051%=      5-min Rain = 0
KANS 131535Z 01009KT 28/17 A3004 RMK A01 T02840167  RH  050%=      5-min Rain = 0
KANS 131540Z 03008KT 29/17 A3004 RMK A01 T02880167  RH  049%=      5-min Rain = 0
KANS 131545Z 02009KT 29/17 A3005 RMK A01 T02870167  RH  049%=      5-min Rain = 0
KANS 131550Z 01009G14KT 29/17 A3005 RMK A01 T02880166  RH  049%=      5-min Rain = 0
KANS 131555Z 02009KT 29/17 A3005 RMK A01 T02880165  RH  048%=      5-min Rain = 0
KANS 131600Z 02009KT 29/17 A3005 RMK A01 T02890167  RH  049%=      5-min Rain = 0
KANS 131605Z 02010KT 30/17 A3005 RMK A01 T02950168  RH  047%=      5-min Rain = 0
KANS 131610Z 03011KT 30/17 A3005 RMK A01 T03040168  RH  045%=      5-min Rain = 0
KANS 131615Z 03009KT 30/17 A3005 RMK A01 T02970167  RH  047%=      5-min Rain = 0
KANS 131620Z 03009G15KT 29/17 A3006 RMK A01 T02930168  RH  048%=      5-min Rain = 0
KANS 131625Z 02010KT 29/17 A3006 RMK A01 T02920169  RH  049%=      5-min Rain = 0
KANS 131630Z 03010G16KT 29/17 A3006 RMK A01 T02910170  RH  049%=      5-min Rain = 0
KANS 131635Z 03011G16KT 30/17 A3006 RMK A01 T02970171  RH  048%=      5-min Rain = 0
KANS 131640Z 02011G17KT 30/17 A3006 RMK A01 T03010169  RH  046%=      5-min Rain = 0
KANS 131645Z 02009G14KT 31/17 A3006 RMK A01 T03050168  RH  045%=      5-min Rain = 0
KANS 131650Z 01009G15KT 31/17 A3006 RMK A01 T03080167  RH  044%=      5-min Rain = 0
KANS 131655Z 01010G16KT 31/16 A3006 RMK A01 T03100164  RH  042%=      5-min Rain = 0
KANS 131700Z 01010G15KT 31/16 A3006 RMK A01 T03130162  RH  041%=      5-min Rain = 0
KANS 131705Z 02009KT 32/16 A3006 RMK A01 T03160161  RH  040%=      5-min Rain = 0
KANS 131710Z 01010G16KT 32/16 A3006 RMK A01 T03220160  RH  039%=      5-min Rain = 0
KANS 131715Z 01009G14KT 32/16 A3006 RMK A01 T03230160  RH  038%=      5-min Rain = 0
KANS 131720Z 02010G17KT 33/16 A3006 RMK A01 T03250157  RH  037%=      5-min Rain = 0
KANS 131725Z 02008G15KT 33/16 A3006 RMK A01 T03280156  RH  036%=      5-min Rain = 0
KANS 131730Z 36009G16KT 33/16 A3005 RMK A01 T03290155  RH  036%=      5-min Rain = 0
KANS 131735Z 01009G16KT 33/15 A3005 RMK A01 T03310153  RH  035%=      5-min Rain = 0
KANS 131740Z 35011G16KT 33/15 A3005 RMK A01 T03340152  RH  034%=      5-min Rain = 0
KANS 131745Z 00012G18KT 33/15 A3005 RMK A01 T03310151  RH  035%=      5-min Rain = 0
KANS 131750Z 00012KT 34/15 A3005 RMK A01 T03360150  RH  033%=      5-min Rain = 0
KANS 131755Z 02011G17KT 34/15 A3005 RMK A01 T03370153  RH  034%=      5-min Rain = 0
KANS 131800Z 01010G15KT 34/15 A3005 RMK A01 T03410151  RH  033%=      5-min Rain = 0
KANS 131805Z 00010G16KT 34/15 A3005 RMK A01 T03420152  RH  033%=      5-min Rain = 0
KANS 131810Z 02011G17KT 34/15 A3005 RMK A01 T03410151  RH  033%=      5-min Rain = 0
KANS 131815Z 02011G20KT 34/16 A3005 RMK A01 T03430155  RH  033%=      5-min Rain = 0
KANS 131820Z 02012KT 34/15 A3005 RMK A01 T03440154  RH  033%=      5-min Rain = 0
KANS 131825Z 03011G17KT 35/15 A3005 RMK A01 T03470153  RH  032%=      5-min Rain = 0
KANS 131830Z 01012KT 35/15 A3005 RMK A01 T03500153  RH  031%=      5-min Rain = 0
KANS 131835Z 02011G17KT 35/15 A3005 RMK A01 T03500148  RH  031%=      5-min Rain = 0
KANS 131840Z 01011G18KT 35/15 A3005 RMK A01 T03490150  RH  031%=      5-min Rain = 0
KANS 131845Z 02012G18KT 35/15 A3005 RMK A01 T03480152  RH  032%=      5-min Rain = 0
KANS 131850Z 01012G19KT 35/15 A3005 RMK A01 T03500153  RH  032%=      5-min Rain = 0
KANS 131855Z 01014G19KT 35/15 A3005 RMK A01 T03500152  RH  031%=      5-min Rain = 0
KANS 131900Z 03009G14KT 35/15 A3004 RMK A01 T03540153  RH  031%=      5-min Rain = 0
KANS 131905Z 02009G14KT 36/15 A3004 RMK A01 T03600151  RH  030%=      5-min Rain = 0
KANS 131910Z 04011G19KT 36/15 A3004 RMK A01 T03600149  RH  029%=      5-min Rain = 0
KANS 131915Z 04010G16KT 36/15 A3004 RMK A01 T03610148  RH  029%=      5-min Rain = 0
KANS 131920Z 01012G17KT 36/15 A3004 RMK A01 T03600150  RH  029%=      5-min Rain = 0
KANS 131925Z 02011G17KT 36/15 A3004 RMK A01 T03590148  RH  029%=      5-min Rain = 0
KANS 131930Z 02011G17KT 36/15 A3004 RMK A01 T03610148  RH  029%=      5-min Rain = 0
KANS 131935Z 02012G17KT 36/15 A3004 RMK A01 T03630147  RH  028%=      5-min Rain = 0
KANS 131940Z 03010G16KT 36/15 A3004 RMK A01 T03630148  RH  028%=      5-min Rain = 0
KANS 131945Z 02012G19KT 37/15 A3004 RMK A01 T03650147  RH  028%=      5-min Rain = 0
KANS 131950Z 03012G20KT 36/14 A3004 RMK A01 T03640143  RH  027%=      5-min Rain = 0
KANS 131955Z 03012G18KT 36/14 A3004 RMK A01 T03630141  RH  027%=      5-min Rain = 0
KANS 132000Z 03012G17KT 36/14 A3004 RMK A01 T03640141  RH  027%=      5-min Rain = 0
KANS 132005Z 04012G17KT 37/14 A3003 RMK A01 T03650140  RH  027%=      5-min Rain = 0
KANS 132010Z 03010G15KT 36/14 A3003 RMK A01 T03640137  RH  026%=      5-min Rain = 0
KANS 132015Z 03011G19KT 37/14 A3003 RMK A01 T03650139  RH  027%=      5-min Rain = 0
KANS 132020Z 04009G18KT 37/14 A3003 RMK A01 T03650138  RH  026%=      5-min Rain = 0
KANS 132025Z 04009G18KT 37/14 A3003 RMK A01 T03660136  RH  026%=      5-min Rain = 0
KANS 132030Z 03011G19KT 37/13 A3002 RMK A01 T03700133  RH  025%=      5-min Rain = 0
KANS 132035Z 02012G21KT 37/14 A3002 RMK A01 T03730136  RH  025%=      5-min Rain = 0
KANS 132040Z 03009G15KT 37/14 A3002 RMK A01 T03700138  RH  026%=      5-min Rain = 0
KANS 132045Z 02011KT 37/14 A3002 RMK A01 T03710137  RH  025%=      5-min Rain = 0
KANS 132050Z 05011G18KT 37/13 A3002 RMK A01 T03710134  RH  025%=      5-min Rain = 0
KANS 132055Z 04009G16KT 37/14 A3002 RMK A01 T03720136  RH  025%=      5-min Rain = 0
KANS 132100Z 06010G19KT 37/14 A3001 RMK A01 T03700135  RH  025%=      5-min Rain = 0
KANS 132105Z 04010G16KT 38/13 A3001 RMK A01 T03760133  RH  024%=      5-min Rain = 0
KANS 132110Z 05010G16KT 37/13 A3001 RMK A01 T03730134  RH  025%=      5-min Rain = 0
KANS 132115Z 05009G15KT 37/13 A3001 RMK A01 T03710132  RH  025%=      5-min Rain = 0
KANS 132120Z 03010G19KT 37/13 A30 RMK A01 T03720132  RH  024%=      5-min Rain = 0
KANS 132125Z 03013G18KT 37/13 A30 RMK A01 T03730130  RH  024%=      5-min Rain = 0
KANS 132130Z 02011G17KT 38/13 A30 RMK A01 T03750128  RH  023%=      5-min Rain = 0
KANS 132135Z 04007G14KT 37/13 A30 RMK A01 T03740133  RH  024%=      5-min Rain = 0
KANS 132140Z 05012G17KT 38/13 A30 RMK A01 T03770132  RH  024%=      5-min Rain = 0
KANS 132145Z 02012G17KT 38/13 A2999 RMK A01 T03750127  RH  023%=      5-min Rain = 0
KANS 132150Z 02011G18KT 37/13 A2999 RMK A01 T03740128  RH  023%=      5-min Rain = 0
KANS 132155Z 04010G16KT 37/13 A2999 RMK A01 T03740130  RH  024%=      5-min Rain = 0
KANS 132200Z 04009KT 37/13 A2999 RMK A01 T03740126  RH  023%=      5-min Rain = 0
KANS 132205Z 04005G11KT 38/13 A2999 RMK A01 T03760125  RH  023%=      5-min Rain = 0
KANS 132210Z 02009G15KT 38/13 A2999 RMK A01 T03780127  RH  023%=      5-min Rain = 0
KANS 132215Z 03010G15KT 38/13 A2998 RMK A01 T03780128  RH  023%=      5-min Rain = 0
KANS 132220Z 04009G14KT 38/13 A2998 RMK A01 T03780127  RH  023%=      5-min Rain = 0
KANS 132225Z 03009KT 38/13 A2998 RMK A01 T03790128  RH  023%=      5-min Rain = 0
KANS 132230Z 02011G18KT 38/13 A2998 RMK A01 T03790128  RH  023%=      5-min Rain = 0
KANS 132235Z 04010G16KT 38/13 A2998 RMK A01 T03750126  RH  023%=      5-min Rain = 0
KANS 132240Z 02012G18KT 37/13 A2998 RMK A01 T03740127  RH  023%=      5-min Rain = 0
KANS 132245Z 04009G15KT 37/12 A2998 RMK A01 T03720122  RH  023%=      5-min Rain = 0
KANS 132250Z 04010KT 37/13 A2998 RMK A01 T03730125  RH  023%=      5-min Rain = 0
KANS 132255Z 05009G16KT 37/13 A2998 RMK A01 T03730125  RH  023%=      5-min Rain = 0
KANS 132300Z 05008G16KT 37/13 A2998 RMK A01 T03720127  RH  024%=      5-min Rain = 0
KANS 132305Z 05008G16KT 37/12 A2998 RMK A01 T03730124  RH  023%=      5-min Rain = 0
KANS 132310Z 01011G17KT 37/12 A2998 RMK A01 T03720122  RH  023%=      5-min Rain = 0
KANS 132315Z 02010G15KT 38/12 A2998 RMK A01 T03750118  RH  022%=      5-min Rain = 0
KANS 132320Z 03010G15KT 37/12 A2998 RMK A01 T03730120  RH  022%=      5-min Rain = 0
KANS 132325Z 04007KT 37/11 A2998 RMK A01 T03730114  RH  021%=      5-min Rain = 0
KANS 132330Z 05007G12KT 37/12 A2998 RMK A01 T03720115  RH  022%=      5-min Rain = 0
KANS 132335Z 04009KT 37/12 A2998 RMK A01 T03730115  RH  022%=      5-min Rain = 0
KANS 132340Z 05009G14KT 37/12 A2998 RMK A01 T03700116  RH  022%=      5-min Rain = 0
KANS 132345Z 03006KT 37/11 A2998 RMK A01 T03690108  RH  021%=      5-min Rain = 0
KANS 132350Z 05007KT 37/11 A2998 RMK A01 T03710112  RH  021%=      5-min Rain = 0
KANS 132355Z 06009KT 37/12 A2998 RMK A01 T03710122  RH  023%=      5-min Rain = 0
KANS 140000Z 06009KT 37/12 A2998 RMK A01 T03710121  RH  023%=      5-min Rain = 0
KANS 140005Z 06009G14KT 37/12 A2999 RMK A01 T03720117  RH  022%=      5-min Rain = 0
KANS 140010Z 05011G16KT 37/12 A2999 RMK A01 T03670118  RH  023%=      5-min Rain = 0
KANS 140015Z 03009KT 36/12 A2999 RMK A01 T03620119  RH  024%=      5-min Rain = 0
KANS 140020Z 04009KT 36/12 A2999 RMK A01 T03630118  RH  023%=      5-min Rain = 0
KANS 140025Z 04009KT 37/12 A2999 RMK A01 T03650117  RH  023%=      5-min Rain = 0
KANS 140030Z 05009KT 36/12 A2999 RMK A01 T03610116  RH  023%=      5-min Rain = 0
KANS 140035Z 04009KT 36/12 A2999 RMK A01 T03590118  RH  024%=      5-min Rain = 0
KANS 140040Z 05008G13KT 36/12 A2999 RMK A01 T03610119  RH  024%=      5-min Rain = 0
KANS 140045Z 06010G16KT 36/12 A2999 RMK A01 T03590119  RH  024%=      5-min Rain = 0
KANS 140050Z 05007KT 36/12 A30 RMK A01 T03560119  RH  024%=      5-min Rain = 0
KANS 140055Z 06009G14KT 36/12 A30 RMK A01 T03560121  RH  025%=      5-min Rain = 0
KANS 140100Z 06008G13KT 35/12 A2999 RMK A01 T03540121  RH  025%=      5-min Rain = 0
KANS 140105Z 05008KT 35/12 A30 RMK A01 T03520121  RH  025%=      5-min Rain = 0
KANS 140110Z 04008KT 35/12 A30 RMK A01 T03510122  RH  025%=      5-min Rain = 0
KANS 140115Z 05010KT 35/12 A30 RMK A01 T03500124  RH  026%=      5-min Rain = 0
KANS 140120Z 05008KT 35/13 A30 RMK A01 T03490125  RH  026%=      5-min Rain = 0
KANS 140125Z 06007KT 35/13 A30 RMK A01 T03480125  RH  027%=      5-min Rain = 0
KANS 140130Z 06008KT 35/12 A30 RMK A01 T03470124  RH  027%=      5-min Rain = 0
KANS 140135Z 05007KT 35/12 A30 RMK A01 T03460124  RH  027%=      5-min Rain = 0
KANS 140140Z 05008KT 35/12 A3001 RMK A01 T03450123  RH  027%=      5-min Rain = 0
KANS 140145Z 05006KT 35/12 A3001 RMK A01 T03450123  RH  027%=      5-min Rain = 0
KANS 140150Z 04007KT 34/12 A3001 RMK A01 T03430123  RH  027%=      5-min Rain = 0
KANS 140155Z 04006KT 34/12 A3001 RMK A01 T03420123  RH  027%=      5-min Rain = 0
KANS 140200Z 05005KT 34/12 A3001 RMK A01 T03400123  RH  027%=      5-min Rain = 0
KANS 140205Z 06006KT 34/12 A3002 RMK A01 T03380123  RH  028%=      5-min Rain = 0
KANS 140210Z 09009G14KT 34/13 A3003 RMK A01 T03360127  RH  029%=      5-min Rain = 0
KANS 140215Z 11009KT 33/14 A3003 RMK A01 T03330137  RH  031%=      5-min Rain = 0
KANS 140220Z 13011G16KT 33/14 A3003 RMK A01 T03300137  RH  032%=      5-min Rain = 0
KANS 140225Z 13010G16KT 33/14 A3004 RMK A01 T03260137  RH  033%=      5-min Rain = 0
KANS 140230Z 13008G13KT 32/14 A3004 RMK A01 T03230137  RH  033%=      5-min Rain = 0
KANS 140235Z 12010KT 32/14 A3004 RMK A01 T03200136  RH  033%=      5-min Rain = 0
KANS 140240Z 13009KT 32/14 A3005 RMK A01 T03180135  RH  034%=      5-min Rain = 0
KANS 140245Z 13009G14KT 32/13 A3005 RMK A01 T03160134  RH  034%=      5-min Rain = 0
KANS 140250Z 14007KT 32/13 A3005 RMK A01 T03150133  RH  034%=      5-min Rain = 0
KANS 140255Z 13006KT 31/13 A3006 RMK A01 T03130133  RH  034%=      5-min Rain = 0
KANS 140300Z 13007KT 31/13 A3006 RMK A01 T03120133  RH  034%=      5-min Rain = 0
KANS 140305Z 13007KT 31/13 A3006 RMK A01 T03100134  RH  035%=      5-min Rain = 0
KANS 140310Z 13007KT 31/13 A3006 RMK A01 T03090134  RH  035%=      5-min Rain = 0
KANS 140315Z 13007KT 31/14 A3006 RMK A01 T03080135  RH  035%=      5-min Rain = 0
KANS 140320Z 12008KT 31/14 A3006 RMK A01 T03070136  RH  036%=      5-min Rain = 0
KANS 140325Z 12007KT 31/14 A3007 RMK A01 T03060135  RH  036%=      5-min Rain = 0
KANS 140330Z 11007KT 31/14 A3007 RMK A01 T03050135  RH  036%=      5-min Rain = 0
KANS 140335Z 09006KT 30/14 A3008 RMK A01 T03040138  RH  037%=      5-min Rain = 0
KANS 140340Z 10007KT 30/14 A3008 RMK A01 T03040139  RH  037%=      5-min Rain = 0
KANS 140345Z 10008KT 30/14 A3008 RMK A01 T03040141  RH  038%=      5-min Rain = 0
KANS 140350Z 10008KT 30/14 A3008 RMK A01 T03030141  RH  038%=      5-min Rain = 0
KANS 140355Z 10009G14KT 30/14 A3008 RMK A01 T03020141  RH  038%=      5-min Rain = 0
KANS 140400Z 11008KT 30/14 A3008 RMK A01 T03010141  RH  039%=      5-min Rain = 0
KANS 140405Z 11008KT 30/14 A3008 RMK A01 T03000142  RH  039%=      5-min Rain = 0
KANS 140410Z 11006G11KT 30/14 A3008 RMK A01 T02990142  RH  039%=      5-min Rain = 0
KANS 140415Z 10008KT 30/15 A3008 RMK A01 T02970145  RH  040%=      5-min Rain = 0
KANS 140420Z 10007KT 30/15 A3008 RMK A01 T02950145  RH  041%=      5-min Rain = 0
KANS 140425Z 11006KT 29/15 A3008 RMK A01 T02940145  RH  041%=      5-min Rain = 0
KANS 140430Z 10006KT 29/14 A3008 RMK A01 T02930144  RH  041%=      5-min Rain = 0
KANS 140435Z 10005KT 29/14 A3008 RMK A01 T02920144  RH  041%=      5-min Rain = 0
KANS 140440Z 12005KT 29/14 A3008 RMK A01 T02910144  RH  041%=      5-min Rain = 0
KANS 140445Z 11004KT 29/14 A3008 RMK A01 T02900143  RH  042%=      5-min Rain = 0
KANS 140450Z 10004KT 29/14 A3008 RMK A01 T02890143  RH  042%=      5-min Rain = 0
KANS 140455Z 07004KT 29/14 A3008 RMK A01 T02880144  RH  042%=      5-min Rain = 0

Page generated in 0.0163 seconds.